sensor_id;sensor_type;location;lat;lon;timestamp;temperature;humidity
41904;DHT22;27586;51.124;4.182;2022-08-24T00:02:22;20.90;99.90
41904;DHT22;27586;51.124;4.182;2022-08-24T00:04:49;20.90;99.90
41904;DHT22;27586;51.124;4.182;2022-08-24T00:07:15;20.80;99.90
41904;DHT22;27586;51.124;4.182;2022-08-24T00:09:41;20.90;99.90
41904;DHT22;27586;51.124;4.182;2022-08-24T00:12:08;20.80;99.90
41904;DHT22;27586;51.124;4.182;2022-08-24T00:14:34;20.80;99.90
41904;DHT22;27586;51.124;4.182;2022-08-24T00:17:00;20.80;99.90
41904;DHT22;27586;51.124;4.182;2022-08-24T00:19:26;20.80;99.90
41904;DHT22;27586;51.124;4.182;2022-08-24T00:21:52;20.80;99.90
41904;DHT22;27586;51.124;4.182;2022-08-24T00:24:19;20.80;99.90
41904;DHT22;27586;51.124;4.182;2022-08-24T00:26:45;20.80;99.90
41904;DHT22;27586;51.124;4.182;2022-08-24T00:29:12;20.80;99.90
41904;DHT22;27586;51.124;4.182;2022-08-24T00:31:39;20.80;99.90
41904;DHT22;27586;51.124;4.182;2022-08-24T00:34:05;20.70;99.90
41904;DHT22;27586;51.124;4.182;2022-08-24T00:36:31;20.70;99.90
41904;DHT22;27586;51.124;4.182;2022-08-24T00:38:57;20.70;99.90
41904;DHT22;27586;51.124;4.182;2022-08-24T00:41:23;20.70;99.90
41904;DHT22;27586;51.124;4.182;2022-08-24T00:43:52;20.60;99.90
41904;DHT22;27586;51.124;4.182;2022-08-24T00:49:01;20.60;99.90
41904;DHT22;27586;51.124;4.182;2022-08-24T00:51:36;20.60;99.90
41904;DHT22;27586;51.124;4.182;2022-08-24T00:54:11;20.60;99.90
41904;DHT22;27586;51.124;4.182;2022-08-24T00:56:46;20.60;99.90
41904;DHT22;27586;51.124;4.182;2022-08-24T00:59:21;20.60;99.90
41904;DHT22;27586;51.124;4.182;2022-08-24T01:01:50;20.60;99.90
41904;DHT22;27586;51.124;4.182;2022-08-24T01:04:29;20.50;99.90
41904;DHT22;27586;51.124;4.182;2022-08-24T01:06:57;20.50;99.90
41904;DHT22;27586;51.124;4.182;2022-08-24T01:09:22;20.40;99.90
41904;DHT22;27586;51.124;4.182;2022-08-24T01:11:48;20.40;99.90
41904;DHT22;27586;51.124;4.182;2022-08-24T01:14:16;20.40;99.90
41904;DHT22;27586;51.124;4.182;2022-08-24T01:16:43;20.50;99.90
41904;DHT22;27586;51.124;4.182;2022-08-24T01:19:37;20.40;99.90
41904;DHT22;27586;51.124;4.182;2022-08-24T01:22:14;20.40;99.90
41904;DHT22;27586;51.124;4.182;2022-08-24T01:24:41;20.40;99.90
41904;DHT22;27586;51.124;4.182;2022-08-24T01:27:09;20.40;99.90
41904;DHT22;27586;51.124;4.182;2022-08-24T01:29:36;20.40;99.90
41904;DHT22;27586;51.124;4.182;2022-08-24T01:32:02;20.40;99.90
41904;DHT22;27586;51.124;4.182;2022-08-24T01:34:28;20.40;99.90
41904;DHT22;27586;51.124;4.182;2022-08-24T01:36:55;20.30;99.90
41904;DHT22;27586;51.124;4.182;2022-08-24T01:39:27;20.30;99.90
41904;DHT22;27586;51.124;4.182;2022-08-24T01:41:53;20.30;99.90
41904;DHT22;27586;51.124;4.182;2022-08-24T01:44:21;20.20;99.90
41904;DHT22;27586;51.124;4.182;2022-08-24T01:46:49;20.20;99.90
41904;DHT22;27586;51.124;4.182;2022-08-24T01:49:18;20.20;99.90
41904;DHT22;27586;51.124;4.182;2022-08-24T01:51:44;20.20;99.90
41904;DHT22;27586;51.124;4.182;2022-08-24T01:54:11;20.10;99.90
41904;DHT22;27586;51.124;4.182;2022-08-24T01:56:37;20.10;99.90
41904;DHT22;27586;51.124;4.182;2022-08-24T01:59:04;20.10;99.90
41904;DHT22;27586;51.124;4.182;2022-08-24T02:01:32;20.10;99.90
41904;DHT22;27586;51.124;4.182;2022-08-24T02:04:00;20.10;99.90
41904;DHT22;27586;51.124;4.182;2022-08-24T02:06:27;20.00;99.90
41904;DHT22;27586;51.124;4.182;2022-08-24T02:08:53;20.00;99.90
41904;DHT22;27586;51.124;4.182;2022-08-24T02:11:18;20.00;99.90
41904;DHT22;27586;51.124;4.182;2022-08-24T02:13:44;20.00;99.90
41904;DHT22;27586;51.124;4.182;2022-08-24T02:16:10;20.00;99.90
41904;DHT22;27586;51.124;4.182;2022-08-24T02:18:36;19.90;99.90
41904;DHT22;27586;51.124;4.182;2022-08-24T02:21:05;19.90;99.90
41904;DHT22;27586;51.124;4.182;2022-08-24T02:23:33;19.80;99.90
41904;DHT22;27586;51.124;4.182;2022-08-24T02:26:01;19.80;99.90
41904;DHT22;27586;51.124;4.182;2022-08-24T02:28:27;19.80;99.90
41904;DHT22;27586;51.124;4.182;2022-08-24T02:30:53;19.80;99.90
41904;DHT22;27586;51.124;4.182;2022-08-24T02:33:19;19.70;99.90
41904;DHT22;27586;51.124;4.182;2022-08-24T02:35:45;19.80;99.90
41904;DHT22;27586;51.124;4.182;2022-08-24T02:38:11;19.80;99.90
41904;DHT22;27586;51.124;4.182;2022-08-24T02:40:37;19.80;99.90
41904;DHT22;27586;51.124;4.182;2022-08-24T02:43:03;19.80;99.90
41904;DHT22;27586;51.124;4.182;2022-08-24T02:45:30;19.70;99.90
41904;DHT22;27586;51.124;4.182;2022-08-24T02:47:56;19.70;99.90
41904;DHT22;27586;51.124;4.182;2022-08-24T02:50:21;19.70;99.90
41904;DHT22;27586;51.124;4.182;2022-08-24T02:52:47;19.70;99.90
41904;DHT22;27586;51.124;4.182;2022-08-24T02:55:16;19.70;99.90
41904;DHT22;27586;51.124;4.182;2022-08-24T02:57:42;19.70;99.90
41904;DHT22;27586;51.124;4.182;2022-08-24T03:00:11;19.70;99.90
41904;DHT22;27586;51.124;4.182;2022-08-24T03:02:37;19.70;99.90
41904;DHT22;27586;51.124;4.182;2022-08-24T03:05:03;19.70;99.90
41904;DHT22;27586;51.124;4.182;2022-08-24T03:07:29;19.70;99.90
41904;DHT22;27586;51.124;4.182;2022-08-24T03:09:55;19.70;99.90
41904;DHT22;27586;51.124;4.182;2022-08-24T03:12:20;19.70;99.90
41904;DHT22;27586;51.124;4.182;2022-08-24T03:14:46;19.70;99.90
41904;DHT22;27586;51.124;4.182;2022-08-24T03:17:12;19.70;99.90
41904;DHT22;27586;51.124;4.182;2022-08-24T03:19:38;19.70;99.90
41904;DHT22;27586;51.124;4.182;2022-08-24T03:22:04;19.60;99.90
41904;DHT22;27586;51.124;4.182;2022-08-24T03:24:30;19.60;99.90
41904;DHT22;27586;51.124;4.182;2022-08-24T03:26:56;19.60;99.90
41904;DHT22;27586;51.124;4.182;2022-08-24T03:29:22;19.60;99.90
41904;DHT22;27586;51.124;4.182;2022-08-24T03:31:48;19.50;99.90
41904;DHT22;27586;51.124;4.182;2022-08-24T03:34:14;19.50;99.90
41904;DHT22;27586;51.124;4.182;2022-08-24T03:36:42;19.50;99.90
41904;DHT22;27586;51.124;4.182;2022-08-24T03:39:12;19.50;99.90
41904;DHT22;27586;51.124;4.182;2022-08-24T03:41:37;19.50;99.90
41904;DHT22;27586;51.124;4.182;2022-08-24T03:44:04;19.50;99.90
41904;DHT22;27586;51.124;4.182;2022-08-24T03:46:34;19.40;99.90
41904;DHT22;27586;51.124;4.182;2022-08-24T03:49:01;19.40;99.90
41904;DHT22;27586;51.124;4.182;2022-08-24T03:51:29;19.30;99.90
41904;DHT22;27586;51.124;4.182;2022-08-24T03:53:56;19.20;99.90
41904;DHT22;27586;51.124;4.182;2022-08-24T03:56:23;19.20;99.90
41904;DHT22;27586;51.124;4.182;2022-08-24T03:58:49;19.20;99.90
41904;DHT22;27586;51.124;4.182;2022-08-24T04:01:15;19.10;99.90
41904;DHT22;27586;51.124;4.182;2022-08-24T04:03:44;19.10;99.90
41904;DHT22;27586;51.124;4.182;2022-08-24T04:06:11;19.10;99.90
41904;DHT22;27586;51.124;4.182;2022-08-24T04:08:38;19.10;99.90
41904;DHT22;27586;51.124;4.182;2022-08-24T04:11:04;19.10;99.90
41904;DHT22;27586;51.124;4.182;2022-08-24T04:13:30;19.10;99.90
41904;DHT22;27586;51.124;4.182;2022-08-24T04:15:57;19.10;99.90
41904;DHT22;27586;51.124;4.182;2022-08-24T04:18:28;19.00;99.90
41904;DHT22;27586;51.124;4.182;2022-08-24T04:20:53;19.00;99.90
41904;DHT22;27586;51.124;4.182;2022-08-24T04:23:19;19.10;99.90
41904;DHT22;27586;51.124;4.182;2022-08-24T04:25:46;19.10;99.90
41904;DHT22;27586;51.124;4.182;2022-08-24T04:28:14;19.00;99.90
41904;DHT22;27586;51.124;4.182;2022-08-24T04:30:43;19.00;99.90
41904;DHT22;27586;51.124;4.182;2022-08-24T04:33:11;19.00;99.90
41904;DHT22;27586;51.124;4.182;2022-08-24T04:35:39;19.00;99.90
41904;DHT22;27586;51.124;4.182;2022-08-24T04:38:06;19.10;99.90
41904;DHT22;27586;51.124;4.182;2022-08-24T04:40:32;19.10;99.90
41904;DHT22;27586;51.124;4.182;2022-08-24T04:42:58;19.00;99.90
41904;DHT22;27586;51.124;4.182;2022-08-24T04:45:26;19.00;99.90
41904;DHT22;27586;51.124;4.182;2022-08-24T04:47:52;19.00;99.90
41904;DHT22;27586;51.124;4.182;2022-08-24T04:50:18;19.00;99.90
41904;DHT22;27586;51.124;4.182;2022-08-24T04:52:44;19.00;99.90
41904;DHT22;27586;51.124;4.182;2022-08-24T04:55:10;19.00;99.90
41904;DHT22;27586;51.124;4.182;2022-08-24T04:57:35;19.00;99.90
41904;DHT22;27586;51.124;4.182;2022-08-24T05:00:01;19.00;99.90
41904;DHT22;27586;51.124;4.182;2022-08-24T05:02:28;19.00;99.90
41904;DHT22;27586;51.124;4.182;2022-08-24T05:04:56;18.90;99.90
41904;DHT22;27586;51.124;4.182;2022-08-24T05:07:22;18.90;99.90
41904;DHT22;27586;51.124;4.182;2022-08-24T05:09:48;19.00;99.90
41904;DHT22;27586;51.124;4.182;2022-08-24T05:12:14;19.00;99.90
41904;DHT22;27586;51.124;4.182;2022-08-24T05:14:40;19.10;99.90
41904;DHT22;27586;51.124;4.182;2022-08-24T05:17:06;19.10;99.90
41904;DHT22;27586;51.124;4.182;2022-08-24T05:19:31;19.20;99.90
41904;DHT22;27586;51.124;4.182;2022-08-24T05:21:57;19.20;99.90
41904;DHT22;27586;51.124;4.182;2022-08-24T05:24:23;19.20;99.90
41904;DHT22;27586;51.124;4.182;2022-08-24T05:26:48;19.30;99.90
41904;DHT22;27586;51.124;4.182;2022-08-24T05:29:18;19.30;99.90
41904;DHT22;27586;51.124;4.182;2022-08-24T05:31:44;19.30;99.90
41904;DHT22;27586;51.124;4.182;2022-08-24T05:34:11;19.40;99.90
41904;DHT22;27586;51.124;4.182;2022-08-24T05:36:38;19.40;99.90
41904;DHT22;27586;51.124;4.182;2022-08-24T05:39:07;19.40;99.90
41904;DHT22;27586;51.124;4.182;2022-08-24T05:41:33;19.40;99.90
41904;DHT22;27586;51.124;4.182;2022-08-24T05:43:59;19.50;99.90
41904;DHT22;27586;51.124;4.182;2022-08-24T05:46:26;19.60;99.90
41904;DHT22;27586;51.124;4.182;2022-08-24T05:48:52;19.60;99.90
41904;DHT22;27586;51.124;4.182;2022-08-24T05:51:18;19.70;99.90
41904;DHT22;27586;51.124;4.182;2022-08-24T05:53:44;19.90;99.90
41904;DHT22;27586;51.124;4.182;2022-08-24T05:56:11;20.10;99.90
41904;DHT22;27586;51.124;4.182;2022-08-24T05:58:38;20.10;99.90
41904;DHT22;27586;51.124;4.182;2022-08-24T06:01:06;20.30;99.90
41904;DHT22;27586;51.124;4.182;2022-08-24T06:03:32;20.50;99.90
41904;DHT22;27586;51.124;4.182;2022-08-24T06:05:57;20.70;99.90
41904;DHT22;27586;51.124;4.182;2022-08-24T06:08:23;21.00;99.90
41904;DHT22;27586;51.124;4.182;2022-08-24T06:10:49;21.20;99.90
41904;DHT22;27586;51.124;4.182;2022-08-24T06:13:15;21.50;99.90
41904;DHT22;27586;51.124;4.182;2022-08-24T06:15:41;21.80;99.90
41904;DHT22;27586;51.124;4.182;2022-08-24T06:18:08;22.00;99.90
41904;DHT22;27586;51.124;4.182;2022-08-24T06:20:38;22.20;99.90
41904;DHT22;27586;51.124;4.182;2022-08-24T06:23:05;22.30;99.90
41904;DHT22;27586;51.124;4.182;2022-08-24T06:25:30;22.40;99.90
41904;DHT22;27586;51.124;4.182;2022-08-24T06:28:14;22.60;99.90
41904;DHT22;27586;51.124;4.182;2022-08-24T06:30:40;22.80;99.90
41904;DHT22;27586;51.124;4.182;2022-08-24T06:33:07;22.60;99.90
41904;DHT22;27586;51.124;4.182;2022-08-24T06:35:33;22.40;99.90
41904;DHT22;27586;51.124;4.182;2022-08-24T06:37:58;22.50;99.90
41904;DHT22;27586;51.124;4.182;2022-08-24T06:40:24;22.60;99.90
41904;DHT22;27586;51.124;4.182;2022-08-24T06:42:51;22.70;99.90
41904;DHT22;27586;51.124;4.182;2022-08-24T06:45:17;23.00;99.90
41904;DHT22;27586;51.124;4.182;2022-08-24T06:47:43;23.10;99.90
41904;DHT22;27586;51.124;4.182;2022-08-24T06:50:08;22.90;99.90
41904;DHT22;27586;51.124;4.182;2022-08-24T06:52:34;23.00;99.90
41904;DHT22;27586;51.124;4.182;2022-08-24T06:55:01;23.00;99.90
41904;DHT22;27586;51.124;4.182;2022-08-24T06:57:26;23.10;99.90
41904;DHT22;27586;51.124;4.182;2022-08-24T06:59:52;23.30;99.90
41904;DHT22;27586;51.124;4.182;2022-08-24T07:02:19;23.40;99.90
41904;DHT22;27586;51.124;4.182;2022-08-24T07:04:46;23.50;99.90
41904;DHT22;27586;51.124;4.182;2022-08-24T07:07:12;23.50;99.90
41904;DHT22;27586;51.124;4.182;2022-08-24T07:09:38;23.40;99.90
41904;DHT22;27586;51.124;4.182;2022-08-24T07:12:04;23.20;99.90
41904;DHT22;27586;51.124;4.182;2022-08-24T07:14:30;23.40;99.90
41904;DHT22;27586;51.124;4.182;2022-08-24T07:16:55;23.40;99.90
41904;DHT22;27586;51.124;4.182;2022-08-24T07:19:22;23.60;99.90
41904;DHT22;27586;51.124;4.182;2022-08-24T07:21:47;23.60;99.90
41904;DHT22;27586;51.124;4.182;2022-08-24T07:24:13;23.70;99.90
41904;DHT22;27586;51.124;4.182;2022-08-24T07:26:40;23.60;99.90
41904;DHT22;27586;51.124;4.182;2022-08-24T07:29:10;23.70;99.90
41904;DHT22;27586;51.124;4.182;2022-08-24T07:31:39;23.80;99.90
41904;DHT22;27586;51.124;4.182;2022-08-24T07:34:07;24.10;99.90
41904;DHT22;27586;51.124;4.182;2022-08-24T07:36:34;24.20;99.90
41904;DHT22;27586;51.124;4.182;2022-08-24T07:39:00;24.30;99.90
41904;DHT22;27586;51.124;4.182;2022-08-24T07:41:26;24.40;99.90
41904;DHT22;27586;51.124;4.182;2022-08-24T07:43:53;24.10;99.90
41904;DHT22;27586;51.124;4.182;2022-08-24T07:46:19;24.10;99.90
41904;DHT22;27586;51.124;4.182;2022-08-24T07:48:45;24.00;99.90
41904;DHT22;27586;51.124;4.182;2022-08-24T07:51:13;24.00;99.90
41904;DHT22;27586;51.124;4.182;2022-08-24T07:53:40;24.10;99.90
41904;DHT22;27586;51.124;4.182;2022-08-24T07:56:06;24.10;99.90
41904;DHT22;27586;51.124;4.182;2022-08-24T07:58:33;24.10;99.90
41904;DHT22;27586;51.124;4.182;2022-08-24T08:00:59;24.20;99.90
41904;DHT22;27586;51.124;4.182;2022-08-24T08:03:26;24.30;99.90
41904;DHT22;27586;51.124;4.182;2022-08-24T08:05:58;24.30;99.90
41904;DHT22;27586;51.124;4.182;2022-08-24T08:08:25;24.40;99.90
41904;DHT22;27586;51.124;4.182;2022-08-24T08:10:51;24.50;99.90
41904;DHT22;27586;51.124;4.182;2022-08-24T08:13:17;24.50;99.90
41904;DHT22;27586;51.124;4.182;2022-08-24T08:15:43;24.70;99.90
41904;DHT22;27586;51.124;4.182;2022-08-24T08:18:10;24.90;99.90
41904;DHT22;27586;51.124;4.182;2022-08-24T08:20:38;25.20;99.90
41904;DHT22;27586;51.124;4.182;2022-08-24T08:23:05;25.30;99.90
41904;DHT22;27586;51.124;4.182;2022-08-24T08:25:51;25.50;99.90
41904;DHT22;27586;51.124;4.182;2022-08-24T08:28:18;25.70;99.90
41904;DHT22;27586;51.124;4.182;2022-08-24T08:30:44;25.50;99.90
41904;DHT22;27586;51.124;4.182;2022-08-24T08:33:10;25.70;99.90
41904;DHT22;27586;51.124;4.182;2022-08-24T08:35:37;25.40;99.90
41904;DHT22;27586;51.124;4.182;2022-08-24T08:38:03;25.40;99.90
41904;DHT22;27586;51.124;4.182;2022-08-24T08:43:41;25.10;99.90
41904;DHT22;27586;51.124;4.182;2022-08-24T08:52:37;25.40;99.90
41904;DHT22;27586;51.124;4.182;2022-08-24T08:55:26;25.50;99.90
41904;DHT22;27586;51.124;4.182;2022-08-24T08:58:16;25.50;99.90
41904;DHT22;27586;51.124;4.182;2022-08-24T09:01:08;25.50;99.90
41904;DHT22;27586;51.124;4.182;2022-08-24T09:11:54;25.20;99.90
41904;DHT22;27586;51.124;4.182;2022-08-24T09:14:47;25.20;99.90
41904;DHT22;27586;51.124;4.182;2022-08-24T09:26:28;25.30;99.90
41904;DHT22;27586;51.124;4.182;2022-08-24T09:31:41;25.30;99.90
41904;DHT22;27586;51.124;4.182;2022-08-24T09:39:56;25.40;99.90
41904;DHT22;27586;51.124;4.182;2022-08-24T10:04:20;27.10;99.90
41904;DHT22;27586;51.124;4.182;2022-08-24T10:07:13;27.50;99.90
41904;DHT22;27586;51.124;4.182;2022-08-24T10:12:56;28.30;99.90
41904;DHT22;27586;51.124;4.182;2022-08-24T10:15:33;28.20;99.90
41904;DHT22;27586;51.124;4.182;2022-08-24T10:18:57;28.30;99.90
41904;DHT22;27586;51.124;4.182;2022-08-24T10:24:28;28.50;99.90
41904;DHT22;27586;51.124;4.182;2022-08-24T10:53:25;28.20;99.90
41904;DHT22;27586;51.124;4.182;2022-08-24T10:56:27;28.30;99.90
41904;DHT22;27586;51.124;4.182;2022-08-24T11:01:39;28.80;99.90
41904;DHT22;27586;51.124;4.182;2022-08-24T11:04:29;28.80;99.90
41904;DHT22;27586;51.124;4.182;2022-08-24T11:07:15;28.90;99.90
41904;DHT22;27586;51.124;4.182;2022-08-24T11:09:47;28.80;99.10
41904;DHT22;27586;51.124;4.182;2022-08-24T11:12:38;29.00;99.90
41904;DHT22;27586;51.124;4.182;2022-08-24T11:15:20;29.10;99.60
41904;DHT22;27586;51.124;4.182;2022-08-24T11:17:56;29.40;99.30
41904;DHT22;27586;51.124;4.182;2022-08-24T11:20:40;29.30;99.10
41904;DHT22;27586;51.124;4.182;2022-08-24T11:23:18;29.40;99.00
41904;DHT22;27586;51.124;4.182;2022-08-24T11:26:04;29.70;98.50
41904;DHT22;27586;51.124;4.182;2022-08-24T11:28:45;29.80;98.20
41904;DHT22;27586;51.124;4.182;2022-08-24T11:31:19;29.80;98.50
41904;DHT22;27586;51.124;4.182;2022-08-24T11:33:49;29.80;98.30
41904;DHT22;27586;51.124;4.182;2022-08-24T11:36:21;29.70;97.90
41904;DHT22;27586;51.124;4.182;2022-08-24T11:38:48;29.80;98.20
41904;DHT22;27586;51.124;4.182;2022-08-24T11:53:00;29.90;97.40
41904;DHT22;27586;51.124;4.182;2022-08-24T11:55:43;30.00;96.80
41904;DHT22;27586;51.124;4.182;2022-08-24T11:58:21;29.90;97.10
41904;DHT22;27586;51.124;4.182;2022-08-24T12:06:49;29.90;96.20
41904;DHT22;27586;51.124;4.182;2022-08-24T12:17:14;30.10;95.80
41904;DHT22;27586;51.124;4.182;2022-08-24T12:19:48;30.20;95.70
41904;DHT22;27586;51.124;4.182;2022-08-24T12:22:17;30.10;95.50
41904;DHT22;27586;51.124;4.182;2022-08-24T12:25:10;30.00;94.90
41904;DHT22;27586;51.124;4.182;2022-08-24T12:27:57;30.10;95.30
41904;DHT22;27586;51.124;4.182;2022-08-24T12:30:23;30.10;95.00
41904;DHT22;27586;51.124;4.182;2022-08-24T12:35:31;30.30;95.60
41904;DHT22;27586;51.124;4.182;2022-08-24T12:40:48;30.50;94.70
41904;DHT22;27586;51.124;4.182;2022-08-24T12:43:38;30.30;94.20
41904;DHT22;27586;51.124;4.182;2022-08-24T12:46:04;30.10;94.20
41904;DHT22;27586;51.124;4.182;2022-08-24T12:48:36;30.30;93.70
41904;DHT22;27586;51.124;4.182;2022-08-24T12:54:34;30.30;94.60
41904;DHT22;27586;51.124;4.182;2022-08-24T12:59:26;30.40;93.70
41904;DHT22;27586;51.124;4.182;2022-08-24T13:28:37;30.90;92.50
41904;DHT22;27586;51.124;4.182;2022-08-24T13:42:01;30.70;91.60
41904;DHT22;27586;51.124;4.182;2022-08-24T13:44:52;30.70;91.20
41904;DHT22;27586;51.124;4.182;2022-08-24T13:47:58;30.50;92.20
41904;DHT22;27586;51.124;4.182;2022-08-24T13:59:03;30.70;92.00
41904;DHT22;27586;51.124;4.182;2022-08-24T14:10:09;30.30;91.70
41904;DHT22;27586;51.124;4.182;2022-08-24T14:12:52;30.50;92.30
41904;DHT22;27586;51.124;4.182;2022-08-24T14:15:48;30.30;92.30
41904;DHT22;27586;51.124;4.182;2022-08-24T14:18:55;30.40;92.00
41904;DHT22;27586;51.124;4.182;2022-08-24T14:21:34;30.40;91.70
41904;DHT22;27586;51.124;4.182;2022-08-24T14:24:04;30.40;91.50
41904;DHT22;27586;51.124;4.182;2022-08-24T14:31:41;30.40;91.30
41904;DHT22;27586;51.124;4.182;2022-08-24T14:47:25;30.10;91.10
41904;DHT22;27586;51.124;4.182;2022-08-24T15:07:23;29.50;93.10
41904;DHT22;27586;51.124;4.182;2022-08-24T15:09:51;29.50;93.50
41904;DHT22;27586;51.124;4.182;2022-08-24T15:15:11;29.40;92.40
41904;DHT22;27586;51.124;4.182;2022-08-24T15:18:18;29.40;92.50
41904;DHT22;27586;51.124;4.182;2022-08-24T15:20:52;29.40;92.90
41904;DHT22;27586;51.124;4.182;2022-08-24T15:23:43;29.40;92.10
41904;DHT22;27586;51.124;4.182;2022-08-24T15:26:26;29.30;92.40
41904;DHT22;27586;51.124;4.182;2022-08-24T15:28:54;29.40;92.80
41904;DHT22;27586;51.124;4.182;2022-08-24T15:31:27;29.40;92.10
41904;DHT22;27586;51.124;4.182;2022-08-24T15:33:56;29.50;92.00
41904;DHT22;27586;51.124;4.182;2022-08-24T15:36:22;29.40;91.90
41904;DHT22;27586;51.124;4.182;2022-08-24T15:38:48;29.50;92.30
41904;DHT22;27586;51.124;4.182;2022-08-24T15:41:23;29.60;92.50
41904;DHT22;27586;51.124;4.182;2022-08-24T15:46:30;29.70;92.40
41904;DHT22;27586;51.124;4.182;2022-08-24T15:49:04;29.70;92.30
41904;DHT22;27586;51.124;4.182;2022-08-24T16:00:11;29.60;91.70
41904;DHT22;27586;51.124;4.182;2022-08-24T16:02:37;29.70;91.60
41904;DHT22;27586;51.124;4.182;2022-08-24T16:05:17;29.80;91.70
41904;DHT22;27586;51.124;4.182;2022-08-24T16:10:52;29.80;92.20
41904;DHT22;27586;51.124;4.182;2022-08-24T16:13:29;29.70;91.80
41904;DHT22;27586;51.124;4.182;2022-08-24T16:23:54;29.80;91.30
41904;DHT22;27586;51.124;4.182;2022-08-24T16:26:25;29.90;91.70
41904;DHT22;27586;51.124;4.182;2022-08-24T16:28:52;29.90;91.90
41904;DHT22;27586;51.124;4.182;2022-08-24T16:34:21;30.10;91.50
41904;DHT22;27586;51.124;4.182;2022-08-24T16:36:48;29.90;91.30
41904;DHT22;27586;51.124;4.182;2022-08-24T16:39:13;30.00;91.60
41904;DHT22;27586;51.124;4.182;2022-08-24T16:41:40;29.90;91.90
41904;DHT22;27586;51.124;4.182;2022-08-24T16:44:07;29.90;91.60
41904;DHT22;27586;51.124;4.182;2022-08-24T16:46:35;29.90;91.20
41904;DHT22;27586;51.124;4.182;2022-08-24T16:49:01;30.00;91.80
41904;DHT22;27586;51.124;4.182;2022-08-24T16:51:26;30.00;91.80
41904;DHT22;27586;51.124;4.182;2022-08-24T16:53:53;29.90;91.80
41904;DHT22;27586;51.124;4.182;2022-08-24T16:56:19;29.90;91.90
41904;DHT22;27586;51.124;4.182;2022-08-24T16:58:45;29.90;92.00
41904;DHT22;27586;51.124;4.182;2022-08-24T17:01:12;29.70;91.90
41904;DHT22;27586;51.124;4.182;2022-08-24T17:03:38;29.60;92.10
41904;DHT22;27586;51.124;4.182;2022-08-24T17:06:05;29.60;92.10
41904;DHT22;27586;51.124;4.182;2022-08-24T17:08:31;29.50;92.20
41904;DHT22;27586;51.124;4.182;2022-08-24T17:10:56;29.40;92.20
41904;DHT22;27586;51.124;4.182;2022-08-24T17:13:22;29.40;92.30
41904;DHT22;27586;51.124;4.182;2022-08-24T17:15:48;29.30;92.40
41904;DHT22;27586;51.124;4.182;2022-08-24T17:18:14;29.20;92.60
41904;DHT22;27586;51.124;4.182;2022-08-24T17:20:44;29.10;92.90
41904;DHT22;27586;51.124;4.182;2022-08-24T17:23:09;29.10;92.80
41904;DHT22;27586;51.124;4.182;2022-08-24T17:25:36;29.00;93.10
41904;DHT22;27586;51.124;4.182;2022-08-24T17:28:05;28.90;92.90
41904;DHT22;27586;51.124;4.182;2022-08-24T17:30:31;28.90;93.20
41904;DHT22;27586;51.124;4.182;2022-08-24T17:32:56;28.80;93.40
41904;DHT22;27586;51.124;4.182;2022-08-24T17:35:23;28.70;93.10
41904;DHT22;27586;51.124;4.182;2022-08-24T17:37:51;28.70;93.30
41904;DHT22;27586;51.124;4.182;2022-08-24T17:40:21;28.70;93.40
41904;DHT22;27586;51.124;4.182;2022-08-24T17:42:47;28.70;93.50
41904;DHT22;27586;51.124;4.182;2022-08-24T17:45:14;28.60;93.50
41904;DHT22;27586;51.124;4.182;2022-08-24T17:47:41;28.60;93.70
41904;DHT22;27586;51.124;4.182;2022-08-24T17:50:13;28.50;93.80
41904;DHT22;27586;51.124;4.182;2022-08-24T17:52:40;28.50;94.10
41904;DHT22;27586;51.124;4.182;2022-08-24T17:55:07;28.60;94.10
41904;DHT22;27586;51.124;4.182;2022-08-24T17:57:34;28.50;94.20
41904;DHT22;27586;51.124;4.182;2022-08-24T18:00:00;28.30;94.40
41904;DHT22;27586;51.124;4.182;2022-08-24T18:02:26;28.30;94.60
41904;DHT22;27586;51.124;4.182;2022-08-24T18:04:51;28.20;94.70
41904;DHT22;27586;51.124;4.182;2022-08-24T18:07:20;28.20;94.90
41904;DHT22;27586;51.124;4.182;2022-08-24T18:09:49;28.20;95.00
41904;DHT22;27586;51.124;4.182;2022-08-24T18:12:17;28.20;95.10
41904;DHT22;27586;51.124;4.182;2022-08-24T18:14:44;28.10;95.20
41904;DHT22;27586;51.124;4.182;2022-08-24T18:17:12;28.00;95.30
41904;DHT22;27586;51.124;4.182;2022-08-24T18:19:41;28.00;95.40
41904;DHT22;27586;51.124;4.182;2022-08-24T18:22:07;27.90;95.50
41904;DHT22;27586;51.124;4.182;2022-08-24T18:24:33;27.80;95.50
41904;DHT22;27586;51.124;4.182;2022-08-24T18:27:04;27.80;95.60
41904;DHT22;27586;51.124;4.182;2022-08-24T18:29:31;27.70;95.70
41904;DHT22;27586;51.124;4.182;2022-08-24T18:31:57;27.70;95.80
41904;DHT22;27586;51.124;4.182;2022-08-24T18:34:24;27.60;95.80
41904;DHT22;27586;51.124;4.182;2022-08-24T18:36:51;27.50;95.80
41904;DHT22;27586;51.124;4.182;2022-08-24T18:39:17;27.50;95.90
41904;DHT22;27586;51.124;4.182;2022-08-24T18:41:44;27.50;95.90
41904;DHT22;27586;51.124;4.182;2022-08-24T18:44:12;27.50;96.10
41904;DHT22;27586;51.124;4.182;2022-08-24T18:46:40;27.40;96.10
41904;DHT22;27586;51.124;4.182;2022-08-24T18:49:06;27.40;96.10
41904;DHT22;27586;51.124;4.182;2022-08-24T18:51:33;27.40;96.20
41904;DHT22;27586;51.124;4.182;2022-08-24T18:54:08;27.40;96.10
41904;DHT22;27586;51.124;4.182;2022-08-24T18:56:35;27.30;96.40
41904;DHT22;27586;51.124;4.182;2022-08-24T18:59:01;27.10;96.80
41904;DHT22;27586;51.124;4.182;2022-08-24T19:01:27;27.10;97.00
41904;DHT22;27586;51.124;4.182;2022-08-24T19:03:55;27.00;97.10
41904;DHT22;27586;51.124;4.182;2022-08-24T19:06:22;27.00;97.30
41904;DHT22;27586;51.124;4.182;2022-08-24T19:08:48;27.00;97.30
41904;DHT22;27586;51.124;4.182;2022-08-24T19:11:20;26.90;97.40
41904;DHT22;27586;51.124;4.182;2022-08-24T19:13:47;26.80;97.60
41904;DHT22;27586;51.124;4.182;2022-08-24T19:16:13;26.80;97.40
41904;DHT22;27586;51.124;4.182;2022-08-24T19:18:38;26.80;97.60
41904;DHT22;27586;51.124;4.182;2022-08-24T19:21:04;26.80;97.70
41904;DHT22;27586;51.124;4.182;2022-08-24T19:23:34;26.80;97.80
41904;DHT22;27586;51.124;4.182;2022-08-24T19:26:02;26.80;98.00
41904;DHT22;27586;51.124;4.182;2022-08-24T19:28:28;26.70;97.80
41904;DHT22;27586;51.124;4.182;2022-08-24T19:30:57;26.70;98.00
41904;DHT22;27586;51.124;4.182;2022-08-24T19:33:32;26.70;98.10
41904;DHT22;27586;51.124;4.182;2022-08-24T19:35:59;26.60;98.20
41904;DHT22;27586;51.124;4.182;2022-08-24T19:38:24;26.60;98.20
41904;DHT22;27586;51.124;4.182;2022-08-24T19:40:51;26.60;98.20
41904;DHT22;27586;51.124;4.182;2022-08-24T19:43:16;26.50;98.40
41904;DHT22;27586;51.124;4.182;2022-08-24T19:45:42;26.60;98.40
41904;DHT22;27586;51.124;4.182;2022-08-24T19:48:27;26.50;98.50
41904;DHT22;27586;51.124;4.182;2022-08-24T19:50:53;26.60;98.60
41904;DHT22;27586;51.124;4.182;2022-08-24T19:53:20;26.60;98.50
41904;DHT22;27586;51.124;4.182;2022-08-24T19:55:46;26.70;98.50